Time;durP1;ratioP1;P1;durP2;ratioP2;P2;SDS_P1;SDS_P2;PMS_P1;PMS_P2;Temp;Humidity;BMP_temperature;BMP_pressure;BME280_temperature;BME280_humidity;BME280_pressure;Samples;Min_cycle;Max_cycle;Signal;HPM_P1;HPM_P2
2022/12/09 00:01:13;;;;;;;;;;;;;;;18.65;37.61;94578.81;10424239;28;2126;-56
2022/12/09 00:06:18;;;;;;;;;;;;;;;18.68;37.42;94569.59;10426252;28;2101;-55
2022/12/09 00:11:19;;;;;;;;;;;;;;;18.62;37.24;94555.78;10433146;28;2084;-55
2022/12/09 00:16:19;;;;;;;;;;;;;;;18.64;37.09;94560.72;10430023;28;2087;-54
2022/12/09 00:21:22;;;;;;;;;;;;;;;18.60;37.08;94551.88;10433104;28;2020;-52
2022/12/09 00:26:23;;;;;;;;;;;;;;;18.60;36.92;94551.88;10439744;28;2082;-55
2022/12/09 00:31:27;;;;;;;;;;;;;;;18.55;36.78;94536.22;10441276;28;2075;-54
2022/12/09 00:36:34;;;;;;;;;;;;;;;18.52;36.98;94529.72;10436275;28;2102;-53
2022/12/09 00:41:34;;;;;;;;;;;;;;;18.55;36.70;94520.47;10454626;28;1957;-56
2022/12/09 00:46:34;;;;;;;;;;;;;;;18.50;36.71;94505.59;10414048;28;2110;-52
2022/12/09 00:51:35;;;;;;;;;;;;;;;18.47;36.64;94508.00;10435601;28;2061;-55
2022/12/09 00:56:35;;;;;;;;;;;;;;;18.47;36.58;94508.81;10434270;28;2112;-54
2022/12/09 01:01:35;;;;;;;;;;;;;;;18.46;36.51;94495.97;10435407;28;2003;-55
2022/12/09 01:06:36;;;;;;;;;;;;;;;18.43;36.54;94496.50;10429846;28;2237;-55
2022/12/09 01:11:36;;;;;;;;;;;;;;;18.41;36.38;94491.56;10411097;28;2040;-56
2022/12/09 01:16:37;;;;;;;;;;;;;;;18.40;36.31;94497.88;10409115;28;2006;-54
2022/12/09 01:21:37;;;;;;;;;;;;;;;18.37;36.33;94500.28;10436971;28;2081;-55
2022/12/09 01:26:38;;;;;;;;;;;;;;;18.35;36.28;94510.31;10428775;28;2243;-56
2022/12/09 01:31:38;;;;;;;;;;;;;;;18.30;36.33;94492.03;10435116;28;2060;-56
2022/12/09 01:36:38;;;;;;;;;;;;;;;18.32;36.27;94482.78;10439127;28;1965;-56
2022/12/09 01:41:38;;;;;;;;;;;;;;;18.30;36.29;94484.16;10429313;28;2216;-55
2022/12/09 01:46:39;;;;;;;;;;;;;;;18.29;36.09;94479.97;10425852;28;2064;-56
2022/12/09 01:51:39;;;;;;;;;;;;;;;18.29;36.10;94482.59;10428938;28;2058;-54
2022/12/09 01:56:39;;;;;;;;;;;;;;;18.27;35.95;94471.63;10424306;28;2216;-54
2022/12/09 02:01:40;;;;;;;;;;;;;;;18.21;36.09;94449.16;10423159;28;2064;-55
2022/12/09 02:06:40;;;;;;;;;;;;;;;18.20;36.14;94460.72;10423432;28;2057;-55
2022/12/09 02:11:40;;;;;;;;;;;;;;;18.18;36.07;94457.59;10426809;28;2163;-56
2022/12/09 02:16:54;;;;;;;;;;;;;;;18.18;36.01;94447.09;10421254;28;2025;-56
2022/12/09 02:21:56;;;;;;;;;;;;;;;18.18;35.91;94424.28;10422880;28;2070;-56
2022/12/09 02:27:04;;;;;;;;;;;;;;;18.18;35.95;94432.16;10422969;28;2029;-54
2022/12/09 02:32:07;;;;;;;;;;;;;;;18.14;35.92;94425.16;10430045;28;2085;-53
2022/12/09 02:37:18;;;;;;;;;;;;;;;18.09;35.91;94420.81;10423161;28;2095;-55
2022/12/09 02:42:20;;;;;;;;;;;;;;;18.08;35.85;94431.56;10437589;28;2113;-55
2022/12/09 02:47:21;;;;;;;;;;;;;;;18.08;35.77;94434.19;10419203;28;2073;-55
2022/12/09 02:52:21;;;;;;;;;;;;;;;18.03;35.86;94413.31;10446941;28;2046;-56
2022/12/09 02:57:23;;;;;;;;;;;;;;;18.04;35.80;94415.63;10432475;28;2075;-51
2022/12/09 03:02:31;;;;;;;;;;;;;;;18.04;35.92;94409.59;10440486;28;1957;-53
2022/12/09 03:07:51;;;;;;;;;;;;;;;18.02;36.14;94396.78;10430278;28;2065;-52
2022/12/09 03:12:55;;;;;;;;;;;;;;;18.01;36.41;94389.22;10434065;28;2058;-54
2022/12/09 03:17:56;;;;;;;;;;;;;;;17.95;37.06;94383.28;10420939;28;2069;-51
2022/12/09 03:22:58;;;;;;;;;;;;;;;17.98;36.94;94381.91;10444160;28;2046;-54
2022/12/09 03:28:01;;;;;;;;;;;;;;;17.96;36.86;94384.84;10439434;28;2141;-53
2022/12/09 03:33:01;;;;;;;;;;;;;;;17.97;36.91;94398.72;10457089;28;1960;-52
2022/12/09 03:38:02;;;;;;;;;;;;;;;17.91;37.04;94378.91;10425704;28;1981;-53
2022/12/09 03:43:12;;;;;;;;;;;;;;;17.91;37.04;94382.28;10443497;28;2103;-56
2022/12/09 03:48:12;;;;;;;;;;;;;;;17.92;36.90;94370.75;10452354;28;2025;-54
2022/12/09 03:53:13;;;;;;;;;;;;;;;17.92;37.04;94362.09;10443474;28;2054;-55
2022/12/09 03:58:14;;;;;;;;;;;;;;;17.85;37.06;94354.63;10442931;28;2053;-54
2022/12/09 04:03:15;;;;;;;;;;;;;;;17.79;37.25;94348.69;10435521;28;2025;-51
2022/12/09 04:08:15;;;;;;;;;;;;;;;17.78;37.20;94349.75;10439068;28;2022;-54
2022/12/09 04:13:15;;;;;;;;;;;;;;;17.82;37.02;94356.00;10438475;28;2052;-55
2022/12/09 04:18:16;;;;;;;;;;;;;;;17.81;37.02;94349.19;10440100;28;2114;-53
2022/12/09 04:23:17;;;;;;;;;;;;;;;17.74;36.91;94346.16;10458160;28;2012;-55
2022/12/09 04:28:17;;;;;;;;;;;;;;;17.76;37.04;94340.63;10456790;28;2176;-53
2022/12/09 04:33:21;;;;;;;;;;;;;;;17.73;36.92;94336.75;10449058;28;1978;-53
2022/12/09 04:38:22;;;;;;;;;;;;;;;17.67;37.17;94327.44;10443237;28;2052;-51
2022/12/09 04:43:22;;;;;;;;;;;;;;;17.68;37.00;94312.47;10422015;28;2115;-55
2022/12/09 04:48:22;;;;;;;;;;;;;;;17.64;37.06;94293.91;10433894;28;2080;-53
2022/12/09 04:53:23;;;;;;;;;;;;;;;17.64;36.99;94290.53;10439247;28;2033;-55
2022/12/09 04:58:23;;;;;;;;;;;;;;;17.62;36.99;94308.41;10434977;28;2009;-54
2022/12/09 05:03:24;;;;;;;;;;;;;;;17.66;36.77;94297.03;10436117;28;2031;-54
2022/12/09 05:08:24;;;;;;;;;;;;;;;17.62;36.99;94288.19;10435255;28;2060;-52
2022/12/09 05:13:27;;;;;;;;;;;;;;;17.59;36.85;94288.00;10432141;28;1962;-53
2022/12/09 05:18:27;;;;;;;;;;;;;;;17.58;36.84;94279.34;10432108;28;2048;-51
2022/12/09 05:23:28;;;;;;;;;;;;;;;17.52;36.94;94298.84;10434286;28;2121;-54
2022/12/09 05:28:28;;;;;;;;;;;;;;;17.50;36.86;94301.00;10425444;28;2110;-52
2022/12/09 05:33:28;;;;;;;;;;;;;;;17.51;36.80;94288.69;10431986;28;1983;-55
2022/12/09 05:38:29;;;;;;;;;;;;;;;17.50;36.71;94285.28;10430293;28;2032;-54
2022/12/09 05:43:29;;;;;;;;;;;;;;;17.47;36.92;94266.72;10440574;28;2042;-53
2022/12/09 05:48:30;;;;;;;;;;;;;;;17.49;36.53;94262.78;10422965;28;2063;-50
2022/12/09 05:53:30;;;;;;;;;;;;;;;17.45;36.74;94267.00;10428362;28;2116;-54
2022/12/09 05:58:30;;;;;;;;;;;;;;;17.38;36.62;94256.13;10423751;28;2038;-53
2022/12/09 06:03:30;;;;;;;;;;;;;;;17.42;36.53;94262.34;10425678;28;2017;-50
2022/12/09 06:08:31;;;;;;;;;;;;;;;17.45;36.32;94267.00;10437442;28;2053;-54
2022/12/09 06:13:31;;;;;;;;;;;;;;;17.36;36.59;94262.69;10437586;28;2009;-53
2022/12/09 06:18:31;;;;;;;;;;;;;;;17.36;36.51;94249.59;10426380;28;2112;-53
2022/12/09 06:23:36;;;;;;;;;;;;;;;17.33;36.42;94240.47;10398209;28;2006;-52
2022/12/09 06:28:36;;;;;;;;;;;;;;;17.33;36.45;94242.34;10423773;28;2019;-53
2022/12/09 06:33:37;;;;;;;;;;;;;;;17.31;36.55;94229.50;10435624;28;2112;-51
2022/12/09 06:38:42;;;;;;;;;;;;;;;17.29;36.50;94229.03;10428342;28;2197;-53
2022/12/09 06:43:42;;;;;;;;;;;;;;;17.29;36.40;94229.03;10435656;28;1950;-50
2022/12/09 06:48:42;;;;;;;;;;;;;;;17.27;36.25;94228.53;10437744;28;2057;-54
2022/12/09 06:53:43;;;;;;;;;;;;;;;17.28;36.31;94230.09;10427549;28;2084;-54
2022/12/09 06:58:43;;;;;;;;;;;;;;;17.24;36.38;94212.63;10438493;28;2011;-55
2022/12/09 07:03:47;;;;;;;;;;;;;;;17.22;36.35;94210.31;10424440;28;2098;-52
2022/12/09 07:08:47;;;;;;;;;;;;;;;17.25;36.43;94209.72;10424476;28;2056;-55
2022/12/09 07:13:48;;;;;;;;;;;;;;;17.19;36.48;94217.97;10428179;28;1989;-55
2022/12/09 07:18:48;;;;;;;;;;;;;;;17.18;36.42;94243.38;10428291;28;2039;-51
2022/12/09 07:23:49;;;;;;;;;;;;;;;17.21;36.16;94242.78;10427612;28;1979;-53
2022/12/09 07:28:49;;;;;;;;;;;;;;;17.16;36.21;94242.88;10437702;28;2046;-54
2022/12/09 07:33:50;;;;;;;;;;;;;;;17.17;36.09;94239.19;10428531;28;2123;-54
2022/12/09 07:38:54;;;;;;;;;;;;;;;17.17;36.26;94215.63;10429068;28;2101;-54
2022/12/09 07:43:54;;;;;;;;;;;;;;;17.13;36.18;94208.63;10437817;28;1916;-53
2022/12/09 07:48:54;;;;;;;;;;;;;;;17.13;36.25;94206.00;10427072;28;2046;-52
2022/12/09 07:53:54;;;;;;;;;;;;;;;17.08;36.30;94199.81;10416998;28;2036;-50
2022/12/09 07:58:55;;;;;;;;;;;;;;;17.10;36.18;94212.63;10425222;28;2050;-54
2022/12/09 08:03:56;;;;;;;;;;;;;;;17.08;36.12;94207.66;10435921;28;2036;-54
2022/12/09 08:09:00;;;;;;;;;;;;;;;17.07;36.14;94207.94;10429169;28;2069;-54
2022/12/09 08:14:01;;;;;;;;;;;;;;;17.05;36.06;94220.56;10427702;28;2144;-55
2022/12/09 08:19:04;;;;;;;;;;;;;;;17.04;36.14;94198.81;10430463;28;2051;-53
2022/12/09 08:24:06;;;;;;;;;;;;;;;17.04;36.04;94190.22;10421674;28;2013;-53
2022/12/09 08:29:08;;;;;;;;;;;;;;;17.05;36.04;94191.75;10436110;28;1947;-54
2022/12/09 08:34:08;;;;;;;;;;;;;;;17.02;36.10;94202.81;10435150;28;2053;-53
2022/12/09 08:39:09;;;;;;;;;;;;;;;17.02;35.99;94200.19;10433972;28;2057;-52
2022/12/09 08:44:10;;;;;;;;;;;;;;;16.99;36.03;94183.22;10434585;28;2004;-50
2022/12/09 08:49:10;;;;;;;;;;;;;;;16.99;36.01;94191.06;10431635;28;2114;-55
2022/12/09 08:54:10;;;;;;;;;;;;;;;16.95;36.06;94169.16;10438436;28;2105;-54
2022/12/09 08:59:10;;;;;;;;;;;;;;;16.95;36.04;94168.38;10435208;28;1993;-54
2022/12/09 09:04:11;;;;;;;;;;;;;;;16.94;35.92;94169.44;10431849;28;1999;-54
2022/12/09 09:09:12;;;;;;;;;;;;;;;16.97;35.97;94184.56;10433971;28;2027;-56
2022/12/09 09:14:12;;;;;;;;;;;;;;;16.94;36.01;94182.50;10438206;28;2133;-55
2022/12/09 09:19:14;;;;;;;;;;;;;;;16.94;35.88;94182.50;10430289;28;2039;-54
2022/12/09 09:24:14;;;;;;;;;;;;;;;16.90;36.10;94199.84;10431346;28;2056;-54
2022/12/09 09:29:15;;;;;;;;;;;;;;;16.89;36.02;94180.78;10436066;28;2037;-52
2022/12/09 09:34:16;;;;;;;;;;;;;;;16.91;36.01;94181.28;10429533;28;2007;-53
2022/12/09 09:39:16;;;;;;;;;;;;;;;16.89;35.98;94190.47;10428386;28;2065;-53
2022/12/09 09:44:27;;;;;;;;;;;;;;;16.88;35.97;94186.28;10445741;28;1997;-53
2022/12/09 09:49:30;;;;;;;;;;;;;;;16.85;36.04;94161.47;10435677;28;2053;-54
2022/12/09 09:54:30;;;;;;;;;;;;;;;16.90;35.79;94153.53;10439062;28;2087;-54
2022/12/09 09:59:36;;;;;;;;;;;;;;;16.84;36.06;94146.03;10431058;28;2006;-55
2022/12/09 10:04:36;;;;;;;;;;;;;;;16.83;36.13;94134.81;10433936;28;2022;-54
2022/12/09 10:09:42;;;;;;;;;;;;;;;16.82;35.90;94129.84;10437525;28;2151;-51
2022/12/09 10:14:47;;;;;;;;;;;;;;;16.81;36.06;94123.09;10428998;28;1963;-53
2022/12/09 10:19:48;;;;;;;;;;;;;;;16.81;35.98;94121.25;10447895;28;1982;-54
2022/12/09 10:24:49;;;;;;;;;;;;;;;16.78;35.82;94124.44;10427533;28;3245;-55
2022/12/09 10:30:05;;;;;;;;;;;;;;;16.82;35.95;94124.63;10428659;28;2074;-54
2022/12/09 10:35:25;;;;;;;;;;;;;;;16.77;36.00;94120.28;10433054;28;1910;-54
2022/12/09 10:40:34;;;;;;;;;;;;;;;16.78;35.94;94121.03;10430169;28;2033;-55
2022/12/09 10:45:44;;;;;;;;;;;;;;;16.77;35.89;94109.81;10426193;28;2001;-55
2022/12/09 10:50:45;;;;;;;;;;;;;;;16.74;35.85;94110.38;10425156;28;1942;-55
2022/12/09 10:55:48;;;;;;;;;;;;;;;16.72;35.93;94103.88;10442877;28;2150;-54
2022/12/09 11:00:56;;;;;;;;;;;;;;;16.76;35.71;94094.38;10420063;28;2074;-54
2022/12/09 11:05:58;;;;;;;;;;;;;;;16.71;35.82;94091.88;10431162;28;2022;-53
2022/12/09 11:10:59;;;;;;;;;;;;;;;16.71;35.89;94082.16;10422660;28;2160;-54
2022/12/09 11:16:03;;;;;;;;;;;;;;;16.70;35.79;94074.59;10420502;28;2034;-53
2022/12/09 11:21:04;;;;;;;;;;;;;;;16.68;35.93;94053.19;10430500;28;2026;-54
2022/12/09 11:26:05;;;;;;;;;;;;;;;16.69;35.90;94052.13;10429323;28;1990;-54
2022/12/09 11:31:27;;;;;;;;;;;;;;;16.68;35.91;94042.72;10420604;28;2084;-55
2022/12/09 11:36:28;;;;;;;;;;;;;;;16.68;36.03;94048.75;10426456;28;2061;-54
2022/12/09 11:47:17;;;;;;;;;;;;;;;16.64;35.91;94031.28;10450026;28;2070;-52
2022/12/09 11:52:17;;;;;;;;;;;;;;;16.66;35.89;94018.69;10418288;28;2191;-53
2022/12/09 11:57:26;;;;;;;;;;;;;;;16.64;35.94;94011.16;10441554;28;2078;-55
2022/12/09 12:02:31;;;;;;;;;;;;;;;16.62;35.85;94025.56;10438295;28;2097;-50
2022/12/09 12:07:42;;;;;;;;;;;;;;;16.62;35.77;94017.72;10431438;28;2011;-53
2022/12/09 12:12:50;;;;;;;;;;;;;;;16.61;35.88;94016.94;10435098;28;2087;-53
2022/12/09 12:17:54;;;;;;;;;;;;;;;16.61;35.85;94008.34;10432428;28;2056;-52
2022/12/09 12:23:01;;;;;;;;;;;;;;;16.57;35.94;94010.75;10422355;28;2015;-52
2022/12/09 12:28:06;;;;;;;;;;;;;;;16.55;35.92;94012.13;10433064;28;2100;-53
2022/12/09 12:33:06;;;;;;;;;;;;;;;16.57;35.90;94017.84;10446382;28;2039;-53
2022/12/09 12:38:12;;;;;;;;;;;;;;;16.54;35.91;93994.84;10433290;28;2056;-55
2022/12/09 12:48:41;;;;;;;;;;;;;;;16.55;35.94;94002.41;10428074;28;1998;-56
2022/12/09 12:53:47;;;;;;;;;;;;;;;16.56;35.91;94005.81;10439817;28;2034;-54
2022/12/09 12:58:50;;;;;;;;;;;;;;;16.55;35.86;93999.78;10424012;28;1981;-53
2022/12/09 13:03:59;;;;;;;;;;;;;;;16.50;35.86;93999.13;10433052;28;2105;-53
2022/12/09 13:09:01;;;;;;;;;;;;;;;16.54;35.85;93994.84;10427796;28;2074;-54
2022/12/09 13:14:10;;;;;;;;;;;;;;;16.50;35.75;93986.03;10432088;28;2033;-53
2022/12/09 13:19:29;;;;;;;;;;;;;;;16.49;35.80;93981.84;10448818;28;2007;-52
2022/12/09 13:24:41;;;;;;;;;;;;;;;16.46;35.76;93979.81;10425246;28;2056;-51
2022/12/09 13:29:46;;;;;;;;;;;;;;;16.47;35.84;93978.72;10435615;28;1938;-54
2022/12/09 13:34:53;;;;;;;;;;;;;;;16.45;35.78;93984.25;10427410;28;2007;-52
2022/12/09 13:39:53;;;;;;;;;;;;;;;16.42;35.73;93987.47;10430220;28;2081;-54
2022/12/09 13:44:56;;;;;;;;;;;;;;;16.45;35.86;93992.09;10432368;28;2069;-54
2022/12/09 13:49:57;;;;;;;;;;;;;;;16.42;35.83;93990.09;10437855;28;2082;-53
2022/12/09 13:54:57;;;;;;;;;;;;;;;16.43;35.88;93986.38;10438009;28;2022;-55
2022/12/09 13:59:59;;;;;;;;;;;;;;;16.44;35.77;93993.19;10430446;28;2052;-55
2022/12/09 14:05:09;;;;;;;;;;;;;;;16.43;35.82;93998.69;10434321;28;2054;-49
2022/12/09 14:10:28;;;;;;;;;;;;;;;16.41;35.72;93998.97;10429979;28;1966;-50
2022/12/09 14:15:28;;;;;;;;;;;;;;;16.38;35.89;93998.78;10430547;28;2022;-52
2022/12/09 14:20:32;;;;;;;;;;;;;;;16.38;35.85;94004.03;10430500;28;2091;-52
2022/12/09 14:25:32;;;;;;;;;;;;;;;16.36;35.78;94014.78;10427106;28;2020;-53
2022/12/09 14:30:33;;;;;;;;;;;;;;;16.35;35.85;94015.03;10423675;28;2086;-54
2022/12/09 14:35:42;;;;;;;;;;;;;;;16.36;35.77;94025.22;10432479;28;2480;-55
2022/12/09 14:40:58;;;;;;;;;;;;;;;16.34;35.93;94022.13;10424772;28;2071;-52
2022/12/09 14:46:03;;;;;;;;;;;;;;;16.32;35.75;94021.66;10443097;28;1915;-53
2022/12/09 14:51:14;;;;;;;;;;;;;;;16.32;35.78;94020.84;10434122;28;1971;-53
2022/12/09 14:56:18;;;;;;;;;;;;;;;16.30;35.72;94032.38;10440640;28;1954;-53
2022/12/09 15:01:18;;;;;;;;;;;;;;;16.30;35.84;94029.75;10427706;28;2118;-53
2022/12/09 15:06:19;;;;;;;;;;;;;;;16.28;35.78;94031.88;10433261;28;1953;-54
2022/12/09 15:11:20;;;;;;;;;;;;;;;16.33;35.67;94031.03;10435316;28;2050;-53
2022/12/09 15:16:21;;;;;;;;;;;;;;;16.28;35.67;94042.34;10430715;28;2022;-52
2022/12/09 15:21:26;;;;;;;;;;;;;;;16.30;35.71;94048.06;10415251;28;2267;-53
2022/12/09 15:26:33;;;;;;;;;;;;;;;16.30;35.66;94053.28;10425828;28;2073;-53
2022/12/09 15:31:33;;;;;;;;;;;;;;;16.30;35.65;94044.66;10429559;28;2010;-52
2022/12/09 15:36:47;;;;;;;;;;;;;;;16.22;35.74;94048.72;10427421;28;2002;-53
2022/12/09 15:42:07;;;;;;;;;;;;;;;16.24;35.83;94053.66;10425951;28;2022;-53
2022/12/09 15:47:08;;;;;;;;;;;;;;;16.24;35.70;94054.44;10426834;28;1907;-52
2022/12/09 15:52:08;;;;;;;;;;;;;;;16.21;35.72;94044.56;10427021;28;2113;-53
2022/12/09 15:57:09;;;;;;;;;;;;;;;16.22;35.76;94051.31;10433116;28;2102;-53
2022/12/09 16:02:10;;;;;;;;;;;;;;;16.19;35.72;94051.91;10431929;28;2029;-55
2022/12/09 16:07:13;;;;;;;;;;;;;;;16.22;35.67;94047.94;10431170;28;1985;-55
2022/12/09 16:12:26;;;;;;;;;;;;;;;16.21;35.67;94056.84;10427794;28;2139;-52
2022/12/09 16:17:28;;;;;;;;;;;;;;;16.17;35.63;94064.50;10411614;28;2037;-53
2022/12/09 16:22:29;;;;;;;;;;;;;;;16.18;35.64;94066.03;10441740;28;2094;-53
2022/12/09 16:27:30;;;;;;;;;;;;;;;16.15;35.66;94066.63;10437714;28;2065;-55
2022/12/09 16:32:37;;;;;;;;;;;;;;;16.14;35.72;94054.59;10444505;28;2016;-50
2022/12/09 16:37:41;;;;;;;;;;;;;;;16.16;35.69;94067.38;10435475;28;2389;-53
2022/12/09 16:42:42;;;;;;;;;;;;;;;16.14;35.68;94080.75;10447367;28;2106;-52
2022/12/09 16:47:43;;;;;;;;;;;;;;;16.15;35.62;94076.28;10434266;28;1954;-55
2022/12/09 16:52:43;;;;;;;;;;;;;;;16.10;35.77;94084.97;10433134;28;2111;-54
2022/12/09 16:57:44;;;;;;;;;;;;;;;16.15;35.60;94087.53;10429874;28;2096;-53
2022/12/09 17:02:49;;;;;;;;;;;;;;;16.09;35.76;94098.34;10429166;28;2092;-55
2022/12/09 17:07:49;;;;;;;;;;;;;;;16.11;35.71;94097.00;10434608;28;2104;-54
2022/12/09 17:12:50;;;;;;;;;;;;;;;16.11;35.71;94099.63;10428839;28;2172;-56
2022/12/09 17:17:50;;;;;;;;;;;;;;;16.10;35.66;94105.91;10439920;28;2179;-52
2022/12/09 17:22:50;;;;;;;;;;;;;;;16.13;35.73;94110.56;10430755;28;2449;-52
2022/12/09 17:27:51;;;;;;;;;;;;;;;16.07;35.64;94118.75;10430887;28;2294;-53
2022/12/09 17:32:51;;;;;;;;;;;;;;;16.10;35.50;94118.19;10431837;28;2359;-53
2022/12/09 17:37:51;;;;;;;;;;;;;;;16.05;35.69;94126.13;10414744;28;2362;-53
2022/12/09 17:42:51;;;;;;;;;;;;;;;16.04;35.69;94125.31;10435183;28;2247;-53
2022/12/09 17:47:52;;;;;;;;;;;;;;;16.08;35.63;94135.97;10427645;28;2337;-51
2022/12/09 17:52:52;;;;;;;;;;;;;;;16.08;35.72;94141.22;10427722;28;2086;-50
2022/12/09 17:57:52;;;;;;;;;;;;;;;16.05;35.69;94154.88;10438338;28;1934;-53
2022/12/09 18:02:53;;;;;;;;;;;;;;;16.05;35.62;94158.22;10434862;28;2263;-52
2022/12/09 18:07:53;;;;;;;;;;;;;;;16.04;35.71;94159.31;10419389;28;2333;-52
2022/12/09 18:12:53;;;;;;;;;;;;;;;16.04;35.52;94159.31;10433360;28;2246;-54
2022/12/09 18:17:54;;;;;;;;;;;;;;;16.02;35.78;94176.31;10428238;28;2365;-55
2022/12/09 18:22:54;;;;;;;;;;;;;;;16.00;35.62;94184.44;10415951;28;2394;-54
2022/12/09 18:27:54;;;;;;;;;;;;;;;15.99;35.75;94182.13;10424857;28;2346;-50
2022/12/09 18:32:55;;;;;;;;;;;;;;;15.98;35.63;94191.00;10433447;28;2326;-53
2022/12/09 18:37:57;;;;;;;;;;;;;;;15.96;35.76;94187.91;10436265;28;2762;-53
2022/12/09 18:42:57;;;;;;;;;;;;;;;15.98;35.81;94181.34;10422419;28;2309;-55
2022/12/09 18:47:57;;;;;;;;;;;;;;;15.99;35.64;94190.72;10424084;28;2267;-52
2022/12/09 18:52:58;;;;;;;;;;;;;;;15.95;35.66;94188.97;10432607;28;2280;-52
2022/12/09 18:57:58;;;;;;;;;;;;;;;15.95;35.68;94202.78;10433774;28;2921;-53
2022/12/09 19:02:59;;;;;;;;;;;;;;;15.98;35.64;94201.47;10428448;28;2323;-54
2022/12/09 19:08:00;;;;;;;;;;;;;;;15.97;35.73;94195.44;10428690;28;2352;-54
2022/12/09 19:13:01;;;;;;;;;;;;;;;15.92;35.67;94190.31;10420509;28;1954;-54
2022/12/09 19:18:01;;;;;;;;;;;;;;;15.95;35.63;94186.38;10432266;28;2662;-55
2022/12/09 19:23:03;;;;;;;;;;;;;;;15.92;35.76;94171.22;10427973;28;2336;-52
2022/12/09 19:28:03;;;;;;;;;;;;;;;15.94;35.51;94179.56;10427886;28;2286;-54
2022/12/09 19:33:04;;;;;;;;;;;;;;;15.87;35.78;94190.34;10420312;28;2373;-55
2022/12/09 19:38:04;;;;;;;;;;;;;;;15.88;35.86;94212.84;10429534;28;2310;-52
2022/12/09 19:43:06;;;;;;;;;;;;;;;15.91;35.64;94216.72;10425352;28;2299;-57
2022/12/09 19:48:06;;;;;;;;;;;;;;;15.89;35.96;94218.84;10420330;28;2298;-53
2022/12/09 19:53:06;;;;;;;;;;;;;;;15.88;35.72;94220.66;10426743;28;2418;-51
2022/12/09 19:58:07;;;;;;;;;;;;;;;15.89;35.61;94219.59;10428213;28;2336;-54
2022/12/09 20:03:08;;;;;;;;;;;;;;;15.85;35.74;94218.59;10421872;28;2265;-52
2022/12/09 20:08:08;;;;;;;;;;;;;;;15.86;35.62;94203.72;10430484;28;2350;-52
2022/12/09 20:13:08;;;;;;;;;;;;;;;15.84;35.76;94213.66;10434587;28;2381;-52
2022/12/09 20:18:09;;;;;;;;;;;;;;;15.89;35.57;94213.63;10437340;28;2273;-52
2022/12/09 20:23:10;;;;;;;;;;;;;;;15.83;35.65;94212.88;10433802;28;2216;-52
2022/12/09 20:28:11;;;;;;;;;;;;;;;15.87;35.56;94231.38;10434166;28;2301;-52
2022/12/09 20:33:11;;;;;;;;;;;;;;;15.86;35.54;94237.69;10424289;28;2330;-54
2022/12/09 20:38:11;;;;;;;;;;;;;;;15.83;35.67;94241.63;10426355;28;2098;-54
2022/12/09 20:43:12;;;;;;;;;;;;;;;15.87;35.58;94219.09;10436891;28;2267;-54
2022/12/09 20:48:12;;;;;;;;;;;;;;;15.75;35.73;94210.88;10426320;28;2339;-55
2022/12/09 20:53:12;;;;;;;;;;;;;;;15.77;35.75;94218.44;10432233;28;2347;-53
2022/12/09 20:58:13;;;;;;;;;;;;;;;15.81;35.60;94216.81;10436542;28;2282;-54
2022/12/09 21:03:13;;;;;;;;;;;;;;;15.81;35.69;94235.13;10415353;28;2021;-49
2022/12/09 21:08:14;;;;;;;;;;;;;;;15.79;35.63;94239.84;10428823;28;2276;-52
2022/12/09 21:13:14;;;;;;;;;;;;;;;15.78;35.54;94249.53;10435840;28;2343;-53
2022/12/09 21:18:15;;;;;;;;;;;;;;;15.80;35.54;94252.66;10429705;28;1972;-53
2022/12/09 21:23:15;;;;;;;;;;;;;;;15.77;35.67;94252.41;10438268;28;1922;-53
2022/12/09 21:28:15;;;;;;;;;;;;;;;15.72;35.83;94255.88;10430352;28;2344;-51
2022/12/09 21:33:16;;;;;;;;;;;;;;;15.77;35.70;94247.97;10433889;28;2039;-55
2022/12/09 21:38:16;;;;;;;;;;;;;;;15.76;35.73;94238.59;10422833;28;1973;-53
2022/12/09 21:43:16;;;;;;;;;;;;;;;15.77;35.52;94255.03;10434882;28;2331;-53
2022/12/09 21:48:16;;;;;;;;;;;;;;;15.77;35.50;94258.41;10426756;28;1896;-54
2022/12/09 21:53:17;;;;;;;;;;;;;;;15.76;35.64;94267.31;10447576;28;2415;-54
2022/12/09 21:58:17;;;;;;;;;;;;;;;15.74;35.64;94259.00;10450653;28;1914;-53
2022/12/09 22:03:17;;;;;;;;;;;;;;;15.71;35.68;94264.75;10442388;28;2473;-54
2022/12/09 22:08:17;;;;;;;;;;;;;;;15.75;35.70;94270.97;10426881;28;2288;-54
2022/12/09 22:13:18;;;;;;;;;;;;;;;15.71;35.66;94267.38;10428488;28;2291;-53
2022/12/09 22:18:19;;;;;;;;;;;;;;;15.69;35.75;94266.88;10427673;28;2302;-54
2022/12/09 22:23:19;;;;;;;;;;;;;;;15.72;35.65;94263.72;10430418;28;2339;-52
2022/12/09 22:28:19;;;;;;;;;;;;;;;15.70;35.75;94257.19;10428869;28;2348;-54
2022/12/09 22:33:19;;;;;;;;;;;;;;;15.71;35.64;94251.69;10431137;28;1992;-53
2022/12/09 22:38:27;;;;;;;;;;;;;;;15.63;35.62;94257.53;10429171;28;2413;-51
2022/12/09 22:43:27;;;;;;;;;;;;;;;15.71;35.60;94250.91;10430538;28;2341;-54
2022/12/09 22:48:28;;;;;;;;;;;;;;;15.64;35.71;94238.19;10430533;28;2295;-55
2022/12/09 22:53:32;;;;;;;;;;;;;;;15.66;35.56;94246.50;10429243;28;2273;-53
2022/12/09 22:58:33;;;;;;;;;;;;;;;15.68;35.63;94239.22;10448801;28;2655;-55
2022/12/09 23:03:33;;;;;;;;;;;;;;;15.64;35.70;94245.25;10422813;28;2233;-50
2022/12/09 23:08:33;;;;;;;;;;;;;;;15.66;35.59;94243.91;10434191;28;2096;-53
2022/12/09 23:13:34;;;;;;;;;;;;;;;15.68;35.64;94243.66;10427449;28;1986;-52
2022/12/09 23:18:34;;;;;;;;;;;;;;;15.62;35.60;94255.97;10420117;28;2462;-52
2022/12/09 23:23:34;;;;;;;;;;;;;;;15.61;35.55;94275.31;10424974;28;2361;-54
2022/12/09 23:28:36;;;;;;;;;;;;;;;15.62;35.58;94279.47;10422116;28;2338;-50
2022/12/09 23:33:36;;;;;;;;;;;;;;;15.64;35.54;94287.81;10412927;28;2294;-53
2022/12/09 23:38:36;;;;;;;;;;;;;;;15.61;35.61;94272.69;10436237;28;2221;-53
2022/12/09 23:43:38;;;;;;;;;;;;;;;15.58;35.64;94254.97;10439376;28;2279;-53
2022/12/09 23:48:38;;;;;;;;;;;;;;;15.63;35.62;94261.97;10432110;28;2140;-52
2022/12/09 23:53:38;;;;;;;;;;;;;;;15.57;35.72;94261.25;10443415;28;1989;-51
2022/12/09 23:58:39;;;;;;;;;;;;;;;15.58;35.77;94267.25;10441468;28;2702;-52
